Time;durP1;ratioP1;P1;durP2;ratioP2;P2;SDS_P1;SDS_P2;PMS_P1;PMS_P2;Temp;Humidity;BMP_temperature;BMP_pressure;BME280_temperature;BME280_humidity;BME280_pressure;Samples;Min_cycle;Max_cycle;Signal;HPM_P1;HPM_P2
2023/06/25 00:01:56;;;;;;;1.53;0.63;;;22.20;37.90;;;;;;5073868;28;20179;-69
2023/06/25 00:04:23;;;;;;;2.10;0.60;;;23.00;38.00;;;;;;5072779;28;20662;-71
2023/06/25 00:06:51;;;;;;;2.63;1.03;;;23.50;34.00;;;;;;5074090;28;20207;-69
2023/06/25 00:09:18;;;;;;;0.90;0.60;;;23.10;32.40;;;;;;5073977;28;20256;-70
2023/06/25 00:11:45;;;;;;;2.90;0.70;;;23.00;35.10;;;;;;5074052;28;20178;-70
2023/06/25 00:14:13;;;;;;;4.83;0.90;;;23.20;33.10;;;;;;5073532;28;20198;-69
2023/06/25 00:16:40;;;;;;;1.30;0.67;;;23.10;34.10;;;;;;5073739;28;20218;-70
2023/06/25 00:19:07;;;;;;;0.80;0.60;;;23.90;31.80;;;;;;5073804;28;20203;-71
2023/06/25 00:21:37;;;;;;;1.70;0.93;;;23.40;30.40;;;;;;5073747;28;20200;-70
2023/06/25 00:24:04;;;;;;;1.53;0.90;;;22.90;30.70;;;;;;5073183;28;20180;-70
2023/06/25 00:26:32;;;;;;;2.50;0.57;;;23.40;32.80;;;;;;5073477;28;20203;-69
2023/06/25 00:29:03;;;;;;;1.43;0.70;;;23.40;29.00;;;;;;5074525;28;20226;-70
2023/06/25 00:31:30;;;;;;;2.20;0.90;;;23.50;29.30;;;;;;5074670;28;20180;-69
2023/06/25 00:33:58;;;;;;;1.17;0.67;;;23.60;26.80;;;;;;5073110;28;20172;-68
2023/06/25 00:36:25;;;;;;;2.10;0.80;;;23.80;25.60;;;;;;5073589;28;20176;-68
2023/06/25 00:38:52;;;;;;;2.87;0.63;;;23.70;27.90;;;;;;5072194;28;20180;-71
2023/06/25 00:41:20;;;;;;;2.33;1.00;;;23.00;26.70;;;;;;5072060;28;20656;-70
2023/06/25 00:43:47;;;;;;;1.27;1.00;;;22.70;27.20;;;;;;5072763;28;20207;-72
2023/06/25 00:46:16;;;;;;;1.40;0.90;;;23.20;26.00;;;;;;5073398;28;20172;-69
2023/06/25 00:48:47;;;;;;;2.47;1.10;;;23.00;26.60;;;;;;5071570;28;20259;-70
2023/06/25 00:51:16;;;;;;;2.60;1.00;;;23.60;26.60;;;;;;5072163;28;20233;-72
2023/06/25 00:53:45;;;;;;;3.13;0.70;;;23.90;26.30;;;;;;5072799;28;20262;-70
2023/06/25 00:56:12;;;;;;;2.23;0.80;;;23.30;24.10;;;;;;5073166;28;20191;-71
2023/06/25 00:58:43;;;;;;;1.03;0.47;;;23.20;24.10;;;;;;5073105;28;20186;-71
2023/06/25 01:01:26;;;;;;;1.10;0.60;;;23.10;24.00;;;;;;5072612;28;20235;-71
2023/06/25 01:04:00;;;;;;;2.13;0.50;;;22.90;23.50;;;;;;5054103;28;20432;-68
2023/06/25 01:06:35;;;;;;;1.00;0.50;;;22.80;23.20;;;;;;5069935;28;20176;-69
2023/06/25 01:09:03;;;;;;;0.40;0.40;;;22.40;22.90;;;;;;5071233;28;20258;-70
2023/06/25 01:11:30;;;;;;;1.20;0.60;;;22.40;24.10;;;;;;5070978;28;20184;-69
2023/06/25 01:13:58;;;;;;;2.77;0.70;;;22.60;23.70;;;;;;5071166;28;20237;-72
2023/06/25 01:16:25;;;;;;;0.87;0.37;;;22.90;25.20;;;;;;5069919;28;20224;-71
2023/06/25 01:18:53;;;;;;;1.60;0.50;;;22.80;22.20;;;;;;5071287;28;20207;-70
2023/06/25 01:21:26;;;;;;;0.70;0.40;;;22.50;22.50;;;;;;5071256;28;20687;-71
2023/06/25 01:23:54;;;;;;;1.03;0.40;;;22.80;23.00;;;;;;5070903;28;20671;-70
2023/06/25 01:26:21;;;;;;;2.10;0.43;;;23.20;23.10;;;;;;5071222;28;20191;-70
2023/06/25 01:28:49;;;;;;;0.50;0.47;;;23.10;22.30;;;;;;5070620;28;20644;-71
2023/06/25 01:31:16;;;;;;;0.90;0.60;;;23.20;23.40;;;;;;5070762;28;20271;-70
2023/06/25 01:37:09;;;;;;;0.60;0.50;;;23.70;21.30;;;;;;5066397;28;20191;-71
2023/06/25 01:39:36;;;;;;;1.07;0.50;;;23.50;23.00;;;;;;5070462;28;20672;-70
2023/06/25 01:42:04;;;;;;;1.03;0.47;;;23.50;22.50;;;;;;5071136;28;20275;-70
2023/06/25 01:44:32;;;;;;;1.43;0.50;;;23.90;23.00;;;;;;5070753;28;20237;-68
2023/06/25 01:47:00;;;;;;;1.37;0.43;;;24.10;22.30;;;;;;5070790;28;20230;-70
2023/06/25 01:49:30;;;;;;;0.50;0.40;;;23.70;20.10;;;;;;5070911;28;20215;-68
2023/06/25 01:51:57;;;;;;;0.93;0.30;;;23.40;20.50;;;;;;5070882;28;20221;-70
2023/06/25 01:57:46;;;;;;;1.30;0.30;;;22.90;19.20;;;;;;5070162;28;20261;-70
2023/06/25 02:00:15;;;;;;;0.50;0.40;;;22.80;19.70;;;;;;5070593;28;20224;-69
2023/06/25 02:02:43;;;;;;;1.00;0.40;;;23.20;20.30;;;;;;5071119;28;20244;-69
2023/06/25 02:05:11;;;;;;;0.30;0.30;;;22.80;19.20;;;;;;5070043;28;20214;-70
2023/06/25 02:07:38;;;;;;;0.50;0.30;;;22.80;18.90;;;;;;5070023;28;20184;-69
2023/06/25 02:10:06;;;;;;;2.20;0.60;;;23.70;20.40;;;;;;5070685;28;20244;-69
2023/06/25 02:12:34;;;;;;;3.03;0.50;;;22.90;18.70;;;;;;5071514;28;20609;-68
2023/06/25 02:15:01;;;;;;;0.47;0.30;;;23.00;19.40;;;;;;5073859;28;20231;-70
2023/06/25 02:17:28;;;;;;;0.60;0.60;;;23.30;18.60;;;;;;5074233;28;20176;-70
2023/06/25 02:19:56;;;;;;;2.27;0.50;;;23.10;17.90;;;;;;5074138;28;20236;-70
2023/06/25 02:22:23;;;;;;;0.30;0.30;;;22.80;17.50;;;;;;5073013;28;20531;-70
2023/06/25 02:24:50;;;;;;;2.10;0.77;;;22.60;17.50;;;;;;5073704;28;20199;-69
2023/06/25 02:27:19;;;;;;;1.07;0.50;;;22.80;18.10;;;;;;5074307;28;20172;-70
2023/06/25 02:29:46;;;;;;;0.40;0.30;;;22.90;17.70;;;;;;5073908;28;20243;-70
2023/06/25 02:32:14;;;;;;;1.53;0.40;;;22.90;17.10;;;;;;5074239;28;20197;-70
2023/06/25 02:34:41;;;;;;;1.03;0.40;;;23.00;17.30;;;;;;5074049;28;20582;-70
2023/06/25 02:37:16;;;;;;;1.57;0.50;;;23.40;18.20;;;;;;5073475;28;20187;-69
2023/06/25 02:39:43;;;;;;;2.67;0.60;;;23.80;17.60;;;;;;5073865;28;20184;-70
2023/06/25 02:42:11;;;;;;;0.87;0.37;;;23.60;16.80;;;;;;5074025;28;20172;-69
2023/06/25 02:44:38;;;;;;;0.83;0.40;;;23.10;16.00;;;;;;5073911;28;20200;-68
2023/06/25 02:47:05;;;;;;;0.40;0.30;;;22.90;16.00;;;;;;5073668;28;20176;-70
2023/06/25 02:49:33;;;;;;;0.33;0.33;;;22.70;16.60;;;;;;5073609;28;20212;-69
2023/06/25 02:52:00;;;;;;;2.00;0.47;;;22.60;17.40;;;;;;5073709;28;20260;-71
2023/06/25 02:54:27;;;;;;;2.50;0.40;;;22.70;17.10;;;;;;5073134;28;20218;-69
2023/06/25 02:56:56;;;;;;;0.40;0.30;;;22.40;16.40;;;;;;5072102;28;20188;-68
2023/06/25 02:59:23;;;;;;;1.73;0.43;;;22.40;17.00;;;;;;5073272;28;20195;-69
2023/06/25 03:01:50;;;;;;;0.83;0.40;;;22.40;17.00;;;;;;5073508;28;20222;-69
2023/06/25 03:04:18;;;;;;;4.07;0.53;;;22.20;16.30;;;;;;5073234;28;20187;-70
2023/06/25 03:10:08;;;;;;;0.97;0.40;;;22.10;16.30;;;;;;5072688;28;20223;-68
2023/06/25 03:12:35;;;;;;;1.50;0.47;;;22.40;16.10;;;;;;5072900;28;20203;-68
2023/06/25 03:15:02;;;;;;;1.20;0.60;;;22.50;14.70;;;;;;5073210;28;20239;-71
2023/06/25 03:17:29;;;;;;;0.87;0.47;;;22.30;14.00;;;;;;5073255;28;20178;-69
2023/06/25 03:19:57;;;;;;;0.60;0.23;;;22.30;13.60;;;;;;5072978;28;20274;-68
2023/06/25 03:22:24;;;;;;;0.63;0.40;;;22.40;14.00;;;;;;5072818;28;20224;-70
2023/06/25 03:24:51;;;;;;;1.23;0.40;;;22.50;14.70;;;;;;5072969;28;20535;-71
2023/06/25 03:27:19;;;;;;;1.13;0.40;;;22.90;15.40;;;;;;5073007;28;20276;-68
2023/06/25 03:29:46;;;;;;;1.10;0.40;;;23.00;14.40;;;;;;5072639;28;20700;-67
2023/06/25 03:32:13;;;;;;;2.30;0.60;;;22.90;14.40;;;;;;5072678;28;20196;-68
2023/06/25 03:34:41;;;;;;;1.03;0.40;;;23.10;13.50;;;;;;5072895;28;20180;-69
2023/06/25 03:37:08;;;;;;;3.20;0.40;;;23.30;14.20;;;;;;5072628;28;20241;-69
2023/06/25 03:39:35;;;;;;;0.67;0.40;;;23.40;13.90;;;;;;5072520;28;20267;-70
2023/06/25 03:42:03;;;;;;;0.43;0.40;;;23.20;11.50;;;;;;5066065;28;20281;-68
2023/06/25 03:44:30;;;;;;;0.97;0.40;;;23.10;10.70;;;;;;5052691;28;20176;-68
2023/06/25 03:46:58;;;;;;;4.43;0.50;;;22.60;10.50;;;;;;5052619;28;20181;-69
2023/06/25 03:49:25;;;;;;;0.80;0.37;;;22.40;10.70;;;;;;5052465;28;20232;-69
2023/06/25 03:51:52;;;;;;;0.40;0.40;;;22.40;10.40;;;;;;5070320;28;20238;-68
2023/06/25 03:54:20;;;;;;;1.73;0.87;;;22.00;10.10;;;;;;5072212;28;20176;-68
2023/06/25 03:56:47;;;;;;;1.40;0.50;;;22.10;10.80;;;;;;5072495;28;20172;-68
2023/06/25 03:59:14;;;;;;;2.30;0.70;;;22.10;11.30;;;;;;5072147;28;20961;-68
2023/06/25 04:01:42;;;;;;;0.40;0.40;;;22.20;10.30;;;;;;5072185;28;20190;-68
2023/06/25 04:04:09;;;;;;;2.83;0.60;;;22.10;11.40;;;;;;5072207;28;20179;-68
2023/06/25 04:06:36;;;;;;;0.87;0.40;;;22.00;12.50;;;;;;5072269;28;20292;-68
2023/06/25 04:09:04;;;;;;;0.63;0.40;;;22.20;12.10;;;;;;5072074;28;20316;-67
2023/06/25 04:11:31;;;;;;;3.10;0.60;;;22.50;13.30;;;;;;5072174;28;20190;-67
2023/06/25 04:13:58;;;;;;;0.70;0.60;;;22.70;12.70;;;;;;5063101;28;20183;-68
2023/06/25 04:19:48;;;;;;;0.77;0.60;;;22.30;11.30;;;;;;5071200;28;20207;-70
2023/06/25 04:22:15;;;;;;;1.20;0.67;;;22.00;12.10;;;;;;5072121;28;20195;-67
2023/06/25 04:24:42;;;;;;;0.70;0.50;;;22.20;12.90;;;;;;5071207;28;20325;-68
2023/06/25 04:27:14;;;;;;;2.40;0.77;;;22.40;12.40;;;;;;5071945;28;20257;-68
2023/06/25 04:29:41;;;;;;;0.50;0.40;;;22.20;11.50;;;;;;5071634;28;20214;-68
2023/06/25 04:32:09;;;;;;;0.53;0.40;;;22.20;12.10;;;;;;5070679;28;20207;-67
2023/06/25 04:34:36;;;;;;;1.67;0.70;;;22.30;12.60;;;;;;5070870;28;20645;-68
2023/06/25 04:37:04;;;;;;;0.83;0.47;;;22.40;12.70;;;;;;5071274;28;20171;-67
2023/06/25 04:39:31;;;;;;;0.83;0.50;;;22.20;11.80;;;;;;5071668;28;20258;-68
2023/06/25 04:41:59;;;;;;;0.70;0.47;;;22.20;12.90;;;;;;5072549;28;20172;-69
2023/06/25 04:44:26;;;;;;;3.70;0.80;;;22.20;13.80;;;;;;5072313;28;20211;-70
2023/06/25 04:46:54;;;;;;;0.63;0.50;;;22.30;14.20;;;;;;5071735;28;20171;-68
2023/06/25 04:49:22;;;;;;;1.60;0.40;;;22.10;13.90;;;;;;5071465;28;20207;-69
2023/06/25 04:51:49;;;;;;;0.43;0.40;;;22.10;13.60;;;;;;5072011;28;20183;-68
2023/06/25 04:54:17;;;;;;;1.97;0.60;;;21.90;13.50;;;;;;5070866;28;20179;-68
2023/06/25 04:56:44;;;;;;;0.93;0.50;;;21.80;13.80;;;;;;5071855;28;20183;-69
2023/06/25 04:59:12;;;;;;;1.23;0.60;;;21.80;14.00;;;;;;5071429;28;20246;-69
2023/06/25 05:01:39;;;;;;;1.07;0.50;;;21.80;13.70;;;;;;5071163;28;20176;-68
2023/06/25 05:04:07;;;;;;;1.40;0.70;;;21.90;13.50;;;;;;5071234;28;20529;-68
2023/06/25 05:06:34;;;;;;;0.83;0.60;;;21.70;13.70;;;;;;5071693;28;20199;-68
2023/06/25 05:09:01;;;;;;;1.67;0.60;;;21.70;14.00;;;;;;5071410;28;20262;-69
2023/06/25 05:11:29;;;;;;;1.03;0.47;;;21.90;13.30;;;;;;5071239;28;20233;-68
2023/06/25 05:13:56;;;;;;;0.67;0.50;;;22.00;11.80;;;;;;5070752;28;20256;-68
2023/06/25 05:16:24;;;;;;;2.63;0.50;;;21.80;9.00;;;;;;5071023;28;20310;-69
2023/06/25 05:18:52;;;;;;;0.73;0.43;;;21.80;10.20;;;;;;5071085;28;20184;-69
2023/06/25 05:21:19;;;;;;;1.27;0.67;;;21.50;9.40;;;;;;5071799;28;20176;-68
2023/06/25 05:23:58;;;;;;;0.53;0.50;;;21.30;9.60;;;;;;5072735;28;20198;-68
2023/06/25 05:26:26;;;;;;;0.73;0.53;;;21.10;9.00;;;;;;5072240;28;20254;-68
2023/06/25 05:28:53;;;;;;;2.37;0.60;;;20.80;9.00;;;;;;5070346;28;20544;-69
2023/06/25 05:31:21;;;;;;;0.70;0.57;;;20.70;8.70;;;;;;5072512;28;20187;-68
2023/06/25 05:33:48;;;;;;;1.60;0.80;;;20.60;9.10;;;;;;5072494;28;20228;-69
2023/06/25 05:36:17;;;;;;;2.37;0.60;;;20.70;8.80;;;;;;5072750;28;20175;-68
2023/06/25 05:38:44;;;;;;;2.60;0.60;;;20.20;8.10;;;;;;5072613;28;20247;-68
2023/06/25 05:41:11;;;;;;;0.40;0.40;;;20.00;8.50;;;;;;5072381;28;20206;-68
2023/06/25 05:43:39;;;;;;;1.80;0.53;;;19.70;8.20;;;;;;5054523;28;20179;-69
2023/06/25 05:46:11;;;;;;;1.60;0.50;;;19.40;8.40;;;;;;5070587;28;20236;-69
2023/06/25 05:48:39;;;;;;;0.83;0.53;;;19.20;9.20;;;;;;5073469;28;20776;-68
2023/06/25 05:51:07;;;;;;;0.90;0.60;;;19.00;8.20;;;;;;5074795;28;20227;-68
2023/06/25 05:53:43;;;;;;;0.80;0.60;;;19.00;8.80;;;;;;5074825;28;20225;-68
2023/06/25 05:56:10;;;;;;;2.20;0.60;;;18.80;8.10;;;;;;5054812;28;20551;-68
2023/06/25 05:58:38;;;;;;;2.13;0.37;;;18.60;8.10;;;;;;5074322;28;20663;-70
2023/06/25 06:01:05;;;;;;;0.57;0.40;;;18.50;8.70;;;;;;5074660;28;20190;-68
2023/06/25 06:03:33;;;;;;;6.03;0.60;;;18.50;8.50;;;;;;5074733;28;20177;-69
2023/06/25 06:06:02;;;;;;;2.50;0.80;;;18.30;8.70;;;;;;5074598;28;20648;-69
2023/06/25 06:08:29;;;;;;;1.43;0.57;;;18.30;8.60;;;;;;5074235;28;20184;-69
2023/06/25 06:10:56;;;;;;;0.50;0.50;;;18.10;8.90;;;;;;5074372;28;20626;-69
2023/06/25 06:13:24;;;;;;;1.20;0.50;;;18.10;9.40;;;;;;5074325;28;20530;-69
2023/06/25 06:15:52;;;;;;;1.33;0.50;;;18.00;9.90;;;;;;5074433;28;20242;-68
2023/06/25 06:18:20;;;;;;;3.60;0.50;;;17.90;10.00;;;;;;5074467;28;20198;-69
2023/06/25 06:20:48;;;;;;;1.40;0.70;;;17.90;10.30;;;;;;5074308;28;20184;-68
2023/06/25 06:23:15;;;;;;;1.13;0.60;;;17.80;10.60;;;;;;5074452;28;20195;-69
2023/06/25 06:25:43;;;;;;;2.73;0.60;;;17.80;11.60;;;;;;5073895;28;20194;-69
2023/06/25 06:28:11;;;;;;;2.20;0.70;;;17.60;11.30;;;;;;5074004;28;20670;-68
2023/06/25 06:30:39;;;;;;;1.33;0.90;;;17.50;11.60;;;;;;5073950;28;20294;-69
2023/06/25 06:33:06;;;;;;;1.73;0.70;;;17.50;11.90;;;;;;5073705;28;20172;-68
2023/06/25 06:35:34;;;;;;;1.60;0.80;;;17.30;12.00;;;;;;5074022;28;20171;-68
2023/06/25 06:38:02;;;;;;;0.53;0.50;;;17.30;12.30;;;;;;5073906;28;20782;-68
2023/06/25 06:40:30;;;;;;;0.40;0.40;;;17.20;12.10;;;;;;5074122;28;20186;-68
2023/06/25 06:42:58;;;;;;;2.57;0.70;;;17.10;12.30;;;;;;5073506;28;20237;-68
2023/06/25 06:45:25;;;;;;;0.60;0.60;;;17.10;12.40;;;;;;5073946;28;20207;-68
2023/06/25 06:47:53;;;;;;;1.63;0.80;;;17.00;12.60;;;;;;5073699;28;20645;-68
2023/06/25 06:50:21;;;;;;;0.70;0.70;;;16.90;13.20;;;;;;5072530;28;20215;-69
2023/06/25 06:52:49;;;;;;;2.50;0.97;;;16.70;13.30;;;;;;5073590;28;20321;-68
2023/06/25 06:55:17;;;;;;;2.17;0.80;;;16.50;13.70;;;;;;5073905;28;20893;-68
2023/06/25 06:57:44;;;;;;;2.77;0.57;;;16.50;14.20;;;;;;5073455;28;20187;-68
2023/06/25 07:00:13;;;;;;;3.53;0.70;;;16.40;14.30;;;;;;5073139;28;20183;-68
2023/06/25 07:02:41;;;;;;;6.57;1.10;;;16.40;13.80;;;;;;5073294;28;20176;-69
2023/06/25 07:05:08;;;;;;;5.43;2.57;;;16.30;14.10;;;;;;5073627;28;20661;-68
2023/06/25 07:07:36;;;;;;;1.90;0.50;;;16.20;14.40;;;;;;5073514;28;20172;-68
2023/06/25 07:10:04;;;;;;;2.07;0.70;;;16.30;13.60;;;;;;5072850;28;20208;-68
2023/06/25 07:12:33;;;;;;;1.23;0.60;;;16.20;13.60;;;;;;5072507;28;20175;-68
2023/06/25 07:15:01;;;;;;;2.30;1.00;;;16.20;13.30;;;;;;5072762;28;20622;-67
2023/06/25 07:17:29;;;;;;;1.97;0.80;;;16.10;13.30;;;;;;5071401;28;20203;-68
2023/06/25 07:19:56;;;;;;;1.73;1.23;;;16.10;13.30;;;;;;5072736;28;20204;-68
2023/06/25 07:22:24;;;;;;;1.00;0.80;;;16.00;13.30;;;;;;5052875;28;20182;-68
2023/06/25 07:24:52;;;;;;;1.57;0.80;;;15.90;13.60;;;;;;5052394;28;20172;-68
2023/06/25 07:27:20;;;;;;;3.43;0.80;;;15.80;13.70;;;;;;5069908;28;20180;-68
2023/06/25 07:29:47;;;;;;;1.53;0.60;;;15.70;14.30;;;;;;5072622;28;20732;-68
2023/06/25 07:32:15;;;;;;;0.60;0.60;;;15.70;14.30;;;;;;5072646;28;20187;-68
2023/06/25 07:34:46;;;;;;;1.93;0.87;;;15.70;14.90;;;;;;5072642;28;20183;-67
2023/06/25 07:37:13;;;;;;;4.00;1.20;;;15.60;14.30;;;;;;5072159;28;20236;-69
2023/06/25 07:39:41;;;;;;;2.17;0.90;;;15.70;14.30;;;;;;5072343;28;20188;-68
2023/06/25 07:42:09;;;;;;;4.80;1.30;;;15.60;14.70;;;;;;5072157;28;20183;-69
2023/06/25 07:44:36;;;;;;;1.80;0.90;;;15.60;14.40;;;;;;5066829;28;20229;-68
2023/06/25 07:47:04;;;;;;;2.53;1.23;;;15.50;14.50;;;;;;5069204;28;20236;-68
2023/06/25 07:49:32;;;;;;;1.47;0.93;;;15.40;14.60;;;;;;5070371;28;20638;-67
2023/06/25 07:52:00;;;;;;;2.13;0.90;;;15.40;15.50;;;;;;5072143;28;20182;-68
2023/06/25 07:54:28;;;;;;;2.60;1.13;;;15.30;14.70;;;;;;5072208;28;20686;-69
2023/06/25 07:56:57;;;;;;;1.90;1.00;;;15.20;14.80;;;;;;5072529;28;20286;-69
2023/06/25 07:59:25;;;;;;;2.77;0.90;;;15.20;14.80;;;;;;5072371;28;20187;-69
2023/06/25 08:01:52;;;;;;;1.60;1.00;;;15.20;14.50;;;;;;5073412;28;20393;-68
2023/06/25 08:04:20;;;;;;;1.67;0.80;;;15.10;14.60;;;;;;5073685;28;20168;-68
2023/06/25 08:06:48;;;;;;;2.40;1.10;;;14.90;14.90;;;;;;5073359;28;20184;-69
2023/06/25 08:09:16;;;;;;;1.73;0.90;;;15.00;14.60;;;;;;5073347;28;20214;-68
2023/06/25 08:11:44;;;;;;;1.57;0.80;;;15.00;14.80;;;;;;5071511;28;20669;-68
2023/06/25 08:14:11;;;;;;;1.43;0.90;;;14.90;15.00;;;;;;5072752;28;20271;-69
2023/06/25 08:16:39;;;;;;;0.50;0.47;;;14.80;15.30;;;;;;5073433;28;20190;-68
2023/06/25 08:19:10;;;;;;;2.10;0.70;;;14.70;15.20;;;;;;5073042;28;20668;-68
2023/06/25 08:21:38;;;;;;;1.60;0.50;;;14.50;15.40;;;;;;5072778;28;20259;-69
2023/06/25 08:24:06;;;;;;;1.63;0.60;;;14.50;15.60;;;;;;5072855;28;20578;-68
2023/06/25 08:26:33;;;;;;;0.70;0.70;;;14.40;15.80;;;;;;5073246;28;20259;-69
2023/06/25 08:29:01;;;;;;;3.33;0.80;;;14.40;15.70;;;;;;5072806;28;20165;-69
2023/06/25 08:31:29;;;;;;;0.80;0.70;;;14.50;16.10;;;;;;5072769;28;20267;-69
2023/06/25 08:33:57;;;;;;;0.80;0.80;;;14.30;16.20;;;;;;5072950;28;20179;-69
2023/06/25 08:36:25;;;;;;;0.93;0.80;;;14.20;17.10;;;;;;5071786;28;20543;-70
2023/06/25 08:38:52;;;;;;;2.30;0.93;;;14.00;16.90;;;;;;5072661;28;20194;-69
2023/06/25 08:41:20;;;;;;;1.70;1.20;;;14.00;17.20;;;;;;5073338;28;20614;-69
2023/06/25 08:43:48;;;;;;;2.17;1.20;;;13.90;17.60;;;;;;5072756;28;20178;-69
2023/06/25 08:46:16;;;;;;;2.03;1.30;;;13.80;18.00;;;;;;5072965;28;20194;-70
2023/06/25 08:48:46;;;;;;;2.87;1.53;;;13.90;18.80;;;;;;5072784;28;20734;-69
2023/06/25 08:51:23;;;;;;;2.97;1.47;;;14.00;19.50;;;;;;5072806;28;20699;-70
2023/06/25 08:53:51;;;;;;;2.40;1.70;;;13.90;20.70;;;;;;5072831;28;20174;-69
2023/06/25 08:56:19;;;;;;;1.90;1.30;;;13.90;20.50;;;;;;5072796;28;20185;-69
2023/06/25 08:58:47;;;;;;;3.70;1.33;;;13.80;20.90;;;;;;5072519;28;20659;-68
2023/06/25 09:01:16;;;;;;;3.43;1.70;;;13.80;21.70;;;;;;5072741;28;20216;-68
2023/06/25 09:03:43;;;;;;;2.77;1.73;;;13.60;22.70;;;;;;5072357;28;20179;-69
2023/06/25 09:06:15;;;;;;;2.97;1.40;;;13.40;23.80;;;;;;5072617;28;20175;-69
2023/06/25 09:08:44;;;;;;;3.53;1.60;;;13.30;24.80;;;;;;5072797;28;20187;-69
2023/06/25 09:11:15;;;;;;;3.30;1.20;;;13.40;25.50;;;;;;5072294;28;20234;-69
2023/06/25 09:13:44;;;;;;;4.73;1.57;;;13.50;25.70;;;;;;5071150;28;20282;-68
2023/06/25 09:16:12;;;;;;;3.17;0.90;;;13.30;26.50;;;;;;5072076;28;20618;-69
2023/06/25 09:18:40;;;;;;;3.80;1.23;;;13.20;27.10;;;;;;5072471;28;20188;-68
2023/06/25 09:21:10;;;;;;;2.50;1.23;;;13.30;27.60;;;;;;5073242;28;20170;-69
2023/06/25 09:23:38;;;;;;;2.53;1.20;;;13.40;27.20;;;;;;5079187;28;20182;-68
2023/06/25 09:26:09;;;;;;;1.03;0.90;;;13.40;27.70;;;;;;5077657;28;20181;-68
2023/06/25 09:28:52;;;;;;;3.33;1.70;;;13.40;28.10;;;;;;5078985;28;20209;-68
2023/06/25 09:31:20;;;;;;;4.90;1.10;;;13.30;29.20;;;;;;5078922;28;20218;-68
2023/06/25 09:33:52;;;;;;;3.33;1.40;;;13.10;30.10;;;;;;5077828;28;20183;-68
2023/06/25 09:36:20;;;;;;;1.60;1.10;;;13.00;30.60;;;;;;5077279;28;20674;-69
2023/06/25 09:38:49;;;;;;;2.30;1.10;;;13.00;31.80;;;;;;5078619;28;20178;-69
2023/06/25 09:41:18;;;;;;;4.27;1.50;;;12.80;34.00;;;;;;5057134;28;20222;-69
2023/06/25 09:43:46;;;;;;;1.83;1.47;;;12.70;35.70;;;;;;5062800;28;20266;-69
2023/06/25 09:46:15;;;;;;;2.53;1.10;;;12.50;36.20;;;;;;5078899;28;20174;-68
2023/06/25 09:48:43;;;;;;;7.13;1.90;;;12.50;37.90;;;;;;5079010;28;20267;-69
2023/06/25 09:51:15;;;;;;;1.73;1.20;;;12.40;40.00;;;;;;5078941;28;20209;-68
2023/06/25 09:53:47;;;;;;;2.57;1.30;;;12.40;39.40;;;;;;5078386;28;20550;-69
2023/06/25 09:56:17;;;;;;;2.37;1.10;;;12.50;39.60;;;;;;5078804;28;20224;-69
2023/06/25 09:58:45;;;;;;;1.20;0.97;;;12.40;39.30;;;;;;5078451;28;20174;-69
2023/06/25 10:01:16;;;;;;;3.20;1.00;;;12.50;39.20;;;;;;5077449;28;20206;-69
2023/06/25 10:03:44;;;;;;;1.60;1.10;;;12.50;38.80;;;;;;5078760;28;20170;-68
2023/06/25 10:06:12;;;;;;;1.33;0.90;;;12.50;38.60;;;;;;5078545;28;20266;-68
2023/06/25 10:08:40;;;;;;;0.90;0.80;;;12.40;39.50;;;;;;5078970;28;20178;-68
2023/06/25 10:11:07;;;;;;;1.77;1.00;;;12.20;41.50;;;;;;5078720;28;20238;-68
2023/06/25 10:13:40;;;;;;;1.23;0.90;;;12.10;41.00;;;;;;5078433;28;20171;-68
2023/06/25 10:16:08;;;;;;;1.10;1.00;;;12.20;41.80;;;;;;5078491;28;20225;-68
2023/06/25 10:18:46;;;;;;;1.43;1.00;;;12.20;40.90;;;;;;5078902;28;20309;-68
2023/06/25 10:21:22;;;;;;;4.60;1.03;;;12.20;40.80;;;;;;5078846;28;20166;-68
2023/06/25 10:24:01;;;;;;;2.77;0.90;;;12.20;41.30;;;;;;5078075;28;20178;-68
2023/06/25 10:26:36;;;;;;;3.33;1.03;;;12.30;40.30;;;;;;5077494;28;20190;-69
2023/06/25 10:29:08;;;;;;;1.20;0.73;;;12.30;39.40;;;;;;5078655;28;20706;-69
2023/06/25 10:31:41;;;;;;;0.90;0.90;;;12.20;39.00;;;;;;5078274;28;20190;-68
2023/06/25 10:34:10;;;;;;;1.30;0.90;;;12.20;38.80;;;;;;5075442;28;20175;-69
2023/06/25 10:36:47;;;;;;;1.90;1.00;;;12.30;37.40;;;;;;5075524;28;20187;-69
2023/06/25 10:39:15;;;;;;;1.13;0.90;;;12.20;36.90;;;;;;5075044;28;20196;-69
2023/06/25 10:41:47;;;;;;;0.93;0.80;;;12.00;38.10;;;;;;5075308;28;20183;-69
2023/06/25 10:44:15;;;;;;;1.37;0.80;;;12.00;37.40;;;;;;5075224;28;20178;-68
2023/06/25 10:46:43;;;;;;;4.07;0.87;;;11.90;37.30;;;;;;5075193;28;20177;-68
2023/06/25 10:49:19;;;;;;;0.90;0.70;;;11.90;38.80;;;;;;5075052;28;20178;-68
2023/06/25 10:51:47;;;;;;;3.40;0.70;;;11.80;38.50;;;;;;5074885;28;20185;-68
2023/06/25 10:54:15;;;;;;;1.10;1.00;;;11.70;39.70;;;;;;5074926;28;20205;-68
2023/06/25 10:56:43;;;;;;;0.90;0.70;;;11.60;41.40;;;;;;5074960;28;20281;-68
2023/06/25 10:59:11;;;;;;;2.20;1.00;;;11.50;42.70;;;;;;5074526;28;20243;-68
2023/06/25 11:01:39;;;;;;;2.83;0.90;;;11.60;42.30;;;;;;5074971;28;20171;-68
2023/06/25 11:04:16;;;;;;;1.13;0.90;;;11.50;44.50;;;;;;5074430;28;20299;-68
2023/06/25 11:06:44;;;;;;;4.20;0.80;;;11.60;43.40;;;;;;5075218;28;20180;-68
2023/06/25 11:09:12;;;;;;;1.53;0.80;;;11.60;43.40;;;;;;5073456;28;20185;-68
2023/06/25 11:11:40;;;;;;;0.87;0.83;;;11.70;40.80;;;;;;5073183;28;20284;-68
2023/06/25 11:14:07;;;;;;;3.37;1.00;;;12.00;38.80;;;;;;5074519;28;20261;-68
2023/06/25 11:16:35;;;;;;;2.33;1.00;;;12.10;39.10;;;;;;5074629;28;20188;-68
2023/06/25 11:19:03;;;;;;;0.80;0.80;;;12.00;38.50;;;;;;5074142;28;20572;-68
2023/06/25 11:21:36;;;;;;;1.90;0.90;;;12.10;38.30;;;;;;5074458;28;20208;-68
2023/06/25 11:24:10;;;;;;;1.27;0.90;;;12.10;37.70;;;;;;5074290;28;20224;-68
2023/06/25 11:26:45;;;;;;;1.53;1.10;;;12.20;36.80;;;;;;5074478;28;20201;-68
2023/06/25 11:29:13;;;;;;;1.00;0.70;;;12.30;35.70;;;;;;5074571;28;20196;-68
2023/06/25 11:31:54;;;;;;;1.80;1.00;;;12.50;35.20;;;;;;5074443;28;20209;-68
2023/06/25 11:34:26;;;;;;;1.80;0.83;;;12.60;34.50;;;;;;5074357;28;20179;-68
2023/06/25 11:36:54;;;;;;;3.13;0.90;;;12.60;34.00;;;;;;5074118;28;20208;-68
2023/06/25 11:39:21;;;;;;;1.60;0.80;;;12.60;34.00;;;;;;5074258;28;20189;-68
2023/06/25 11:41:49;;;;;;;1.43;1.00;;;12.50;33.80;;;;;;5074282;28;20190;-68
2023/06/25 11:44:17;;;;;;;3.37;1.00;;;12.70;33.20;;;;;;5073732;28;20520;-69
2023/06/25 11:46:54;;;;;;;0.70;0.70;;;12.60;33.20;;;;;;5073575;28;20187;-68
2023/06/25 11:49:24;;;;;;;1.57;0.90;;;12.40;33.60;;;;;;5074133;28;20206;-68
2023/06/25 11:51:55;;;;;;;1.67;0.87;;;12.30;34.80;;;;;;5074039;28;20194;-68
2023/06/25 11:54:22;;;;;;;1.30;1.10;;;12.10;35.60;;;;;;5073551;28;20215;-68
2023/06/25 11:56:50;;;;;;;4.40;1.10;;;12.00;36.20;;;;;;5073930;28;20270;-68
2023/06/25 11:59:18;;;;;;;1.53;0.80;;;11.90;36.70;;;;;;5073754;28;20184;-68
2023/06/25 12:01:46;;;;;;;3.10;0.93;;;11.90;37.30;;;;;;5073758;28;20567;-68
2023/06/25 12:04:17;;;;;;;1.27;0.90;;;11.90;37.60;;;;;;5073367;28;20187;-68
2023/06/25 12:06:45;;;;;;;1.03;0.87;;;11.90;38.40;;;;;;5073742;28;20186;-68
2023/06/25 12:09:13;;;;;;;1.30;0.90;;;11.90;37.60;;;;;;5073709;28;20322;-68
2023/06/25 12:11:41;;;;;;;1.70;0.90;;;12.10;36.50;;;;;;5073730;28;20183;-68
2023/06/25 12:14:09;;;;;;;1.97;1.03;;;12.10;35.60;;;;;;5073413;28;20177;-68
2023/06/25 12:16:37;;;;;;;4.93;0.90;;;12.10;35.40;;;;;;5073339;28;20191;-68
2023/06/25 12:19:05;;;;;;;0.70;0.70;;;12.00;35.30;;;;;;5073511;28;20174;-68
2023/06/25 12:21:33;;;;;;;2.73;1.00;;;12.00;35.60;;;;;;5073495;28;20638;-68
2023/06/25 12:24:01;;;;;;;1.90;0.80;;;12.00;34.90;;;;;;5073399;28;20174;-68
2023/06/25 12:26:29;;;;;;;2.23;0.90;;;12.20;33.00;;;;;;5072765;28;20206;-68
2023/06/25 12:28:57;;;;;;;1.77;0.80;;;12.30;32.90;;;;;;5071481;28;20186;-68
2023/06/25 12:31:25;;;;;;;0.93;0.77;;;12.40;30.80;;;;;;5073118;28;20309;-68
2023/06/25 12:33:53;;;;;;;2.70;0.80;;;12.50;30.00;;;;;;5072816;28;20189;-68
2023/06/25 12:36:23;;;;;;;1.13;0.70;;;12.70;29.20;;;;;;5072702;28;20225;-69
2023/06/25 12:38:51;;;;;;;0.60;0.60;;;12.70;29.50;;;;;;5070997;28;20595;-68
2023/06/25 12:41:19;;;;;;;0.70;0.70;;;12.60;29.00;;;;;;5072598;28;20184;-68
2023/06/25 12:43:47;;;;;;;0.60;0.60;;;12.80;27.80;;;;;;5072675;28;20268;-69
2023/06/25 12:46:15;;;;;;;0.87;0.70;;;12.90;27.00;;;;;;5072205;28;20188;-69
2023/06/25 12:48:43;;;;;;;0.70;0.70;;;12.90;26.90;;;;;;5072408;28;20278;-68
2023/06/25 12:51:11;;;;;;;1.70;0.90;;;12.90;26.90;;;;;;5058305;28;20207;-67
2023/06/25 12:53:39;;;;;;;1.80;0.77;;;12.90;26.80;;;;;;5070796;28;20643;-67
2023/06/25 12:56:07;;;;;;;0.70;0.60;;;12.90;26.70;;;;;;5072223;28;20688;-68
2023/06/25 12:58:35;;;;;;;1.87;1.30;;;13.00;26.10;;;;;;5072068;28;20197;-68
2023/06/25 13:01:03;;;;;;;1.40;0.80;;;13.10;26.30;;;;;;5072356;28;20641;-67
2023/06/25 13:03:30;;;;;;;1.13;0.80;;;13.10;26.00;;;;;;5072413;28;20554;-67
2023/06/25 13:05:58;;;;;;;1.30;0.80;;;13.00;26.80;;;;;;5072372;28;20186;-68
2023/06/25 13:08:27;;;;;;;1.33;0.67;;;12.90;26.30;;;;;;5072284;28;20244;-68